Manokin, Maryland
Current Conditions -  °F | °C
As of 2:54 AM on Sunday 26 Oct 2014 (Local Time) from KWAL Reporting Station
Clear Clear  
Wind Chill: 59°   Ceiling: Unl
Heat Index: 59°   Visibility: 10mi
Dew Point: 50°   Wind: 8mph
Humidity: 72%   Direction: 280°W
Pressure: 29.69"   Gusts: NA
Location:  38.11°N, 75.76°W
Report Text: KWAL 260654Z AUTO 28007KT 10SM CLR 15/10 A2969 RMK AO2 SLP051 T01500100
Loading
Personal Weather Stations






























Interactive Weather Map
Tropical Storm Tracking
New forecast layout! Learn more

10-Day Weather Forecast

Advertisements
Track Severe Weather on mobile